Time;durP1;ratioP1;P1;durP2;ratioP2;P2;SDS_P1;SDS_P2;PMS_P1;PMS_P2;Temp;Humidity;BMP_temperature;BMP_pressure;BME280_temperature;BME280_humidity;BME280_pressure;Samples;Min_cycle;Max_cycle;Signal;HPM_P1;HPM_P2
2021/12/16 00:01:51;;;;;;;14.50;11.20;;;;;;;;;;5035911;28;20378;-61
2021/12/16 00:31:22;;;;;;;19.13;13.03;;;;;;;;;;5035070;28;20386;-61
2021/12/16 00:34:00;;;;;;;17.90;13.00;;;;;;;;;;5034324;28;20391;-60
2021/12/16 00:36:26;;;;;;;18.30;13.60;;;;;;;;;;5034743;28;20379;-60
2021/12/16 00:38:53;;;;;;;17.70;13.17;;;;;;;;;;5034265;28;20458;-61
2021/12/16 00:41:19;;;;;;;21.07;14.40;;;;;;;;;;5034295;28;20467;-61
2021/12/16 00:44:03;;;;;;;18.17;12.70;;;;;;;;;;5034249;28;20910;-60
2021/12/16 00:49:36;;;;;;;19.23;14.40;;;;;;;;;;5034476;28;20939;-60
2021/12/16 00:54:37;;;;;;;18.60;13.03;;;;;;;;;;5034111;28;20386;-61
2021/12/16 00:57:09;;;;;;;21.60;13.43;;;;;;;;;;5034236;28;20423;-60
2021/12/16 00:59:39;;;;;;;19.70;13.43;;;;;;;;;;5033896;28;21018;-60
2021/12/16 01:02:22;;;;;;;22.60;15.07;;;;;;;;;;5032819;28;20408;-59
2021/12/16 01:34:44;;;;;;;24.53;15.03;;;;;;;;;;5033710;28;20445;-61
2021/12/16 01:47:51;;;;;;;24.10;15.23;;;;;;;;;;5033266;28;20390;-61
2021/12/16 01:50:24;;;;;;;21.50;14.00;;;;;;;;;;5033451;28;20417;-61
2021/12/16 01:55:38;;;;;;;20.73;13.63;;;;;;;;;;5033012;28;20723;-61
2021/12/16 01:58:13;;;;;;;20.20;13.17;;;;;;;;;;5031981;28;20453;-63
2021/12/16 02:01:01;;;;;;;19.90;13.17;;;;;;;;;;5032953;28;21021;-61
2021/12/16 02:03:44;;;;;;;19.57;12.03;;;;;;;;;;5033275;28;20375;-60
2021/12/16 02:08:44;;;;;;;20.47;13.40;;;;;;;;;;5052891;28;21005;-58
2021/12/16 02:11:38;;;;;;;18.60;12.97;;;;;;;;;;5052746;28;20898;-61
2021/12/16 02:36:00;;;;;;;19.60;12.23;;;;;;;;;;5052690;28;20375;-58
2021/12/16 02:38:29;;;;;;;16.07;10.43;;;;;;;;;;5052655;28;20413;-60
2021/12/16 02:40:56;;;;;;;14.43;10.70;;;;;;;;;;5052623;28;20560;-60
2021/12/16 02:43:53;;;;;;;17.77;12.30;;;;;;;;;;5051092;28;20418;-60
2021/12/16 02:48:56;;;;;;;20.90;12.60;;;;;;;;;;5052375;28;20416;-59
2021/12/16 02:51:24;;;;;;;21.20;11.80;;;;;;;;;;5052256;28;20499;-59
2021/12/16 02:53:55;;;;;;;14.73;11.20;;;;;;;;;;5052202;28;20402;-56
2021/12/16 02:56:21;;;;;;;17.70;11.67;;;;;;;;;;5052072;28;20428;-60
2021/12/16 02:58:49;;;;;;;16.90;11.70;;;;;;;;;;5052158;28;20462;-59
2021/12/16 03:01:24;;;;;;;18.10;11.43;;;;;;;;;;5052140;28;20496;-56
2021/12/16 03:03:50;;;;;;;14.83;10.03;;;;;;;;;;5052282;28;20432;-59
2021/12/16 03:06:16;;;;;;;18.53;13.00;;;;;;;;;;5052283;28;20394;-55
2021/12/16 03:08:42;;;;;;;19.70;13.70;;;;;;;;;;5053765;28;20834;-59
2021/12/16 03:11:22;;;;;;;15.60;10.63;;;;;;;;;;5055974;28;20480;-60
2021/12/16 03:16:30;;;;;;;14.23;9.33;;;;;;;;;;5056388;28;20385;-60
2021/12/16 03:19:15;;;;;;;17.10;11.63;;;;;;;;;;5056071;28;20453;-61
2021/12/16 03:21:49;;;;;;;18.50;12.23;;;;;;;;;;5055929;28;20474;-60
2021/12/16 03:32:06;;;;;;;16.30;11.93;;;;;;;;;;5056197;28;20417;-60
2021/12/16 03:35:00;;;;;;;19.30;13.33;;;;;;;;;;5055868;28;20391;-61
2021/12/16 03:37:20;;;;;;;19.13;13.47;;;;;;;;;;5044239;28;20966;-60
2021/12/16 03:39:49;;;;;;;21.60;14.20;;;;;;;;;;5055456;28;20555;-60
2021/12/16 03:42:17;;;;;;;19.50;13.17;;;;;;;;;;5053959;28;20491;-60
2021/12/16 03:44:56;;;;;;;21.20;14.30;;;;;;;;;;5042804;28;20463;-60
2021/12/16 03:47:27;;;;;;;25.60;15.60;;;;;;;;;;5035725;28;20856;-60
2021/12/16 03:49:53;;;;;;;29.30;16.87;;;;;;;;;;5035312;28;20415;-59
2021/12/16 03:52:19;;;;;;;25.83;15.77;;;;;;;;;;5035205;28;20428;-59
2021/12/16 03:54:49;;;;;;;22.23;13.07;;;;;;;;;;5035285;28;20561;-60
2021/12/16 03:57:16;;;;;;;28.57;16.23;;;;;;;;;;5034908;28;20423;-60
2021/12/16 03:59:42;;;;;;;32.60;19.67;;;;;;;;;;5035255;28;20451;-60
2021/12/16 04:02:17;;;;;;;30.93;18.17;;;;;;;;;;5035508;28;20453;-60
2021/12/16 04:04:43;;;;;;;32.43;19.37;;;;;;;;;;5035430;28;20386;-59
2021/12/16 04:07:09;;;;;;;31.73;17.80;;;;;;;;;;5034905;28;20473;-60
2021/12/16 04:09:36;;;;;;;30.33;17.40;;;;;;;;;;5035147;28;20422;-59
2021/12/16 04:12:12;;;;;;;30.97;18.97;;;;;;;;;;5035122;28;20739;-60
2021/12/16 04:14:39;;;;;;;34.27;19.87;;;;;;;;;;5045737;28;20878;-60
2021/12/16 04:17:06;;;;;;;37.23;20.60;;;;;;;;;;5054568;28;20898;-57
2021/12/16 04:19:33;;;;;;;24.90;14.77;;;;;;;;;;5052809;28;20460;-60
2021/12/16 04:21:59;;;;;;;25.80;16.20;;;;;;;;;;5045417;28;20405;-60
2021/12/16 04:24:26;;;;;;;20.87;14.20;;;;;;;;;;5054696;28;20394;-60
2021/12/16 04:26:53;;;;;;;23.50;14.87;;;;;;;;;;5054603;28;20485;-57
2021/12/16 04:29:22;;;;;;;26.90;16.10;;;;;;;;;;5054479;28;20921;-60
2021/12/16 04:31:48;;;;;;;27.53;16.57;;;;;;;;;;5054529;28;20402;-59
2021/12/16 04:34:14;;;;;;;30.10;17.30;;;;;;;;;;5054687;28;20406;-58
2021/12/16 04:36:40;;;;;;;30.50;18.43;;;;;;;;;;5054336;28;20394;-60
2021/12/16 04:39:11;;;;;;;23.77;14.30;;;;;;;;;;5054378;28;20468;-59
2021/12/16 04:41:39;;;;;;;21.53;13.03;;;;;;;;;;5054401;28;20430;-56
2021/12/16 04:44:07;;;;;;;25.60;13.90;;;;;;;;;;5054607;28;20507;-59
2021/12/16 04:46:34;;;;;;;21.20;13.30;;;;;;;;;;5054354;28;20536;-58
2021/12/16 04:49:01;;;;;;;26.00;14.10;;;;;;;;;;5052779;28;20425;-58
2021/12/16 04:51:28;;;;;;;23.60;12.23;;;;;;;;;;5054140;28;20410;-58
2021/12/16 04:53:54;;;;;;;18.83;10.93;;;;;;;;;;5054012;28;20394;-58
2021/12/16 04:56:21;;;;;;;19.07;12.50;;;;;;;;;;5054257;28;20405;-59
2021/12/16 04:58:49;;;;;;;23.60;13.37;;;;;;;;;;5053992;28;20425;-59
2021/12/16 05:01:15;;;;;;;17.43;11.27;;;;;;;;;;5054115;28;20426;-58
2021/12/16 05:03:41;;;;;;;21.07;12.00;;;;;;;;;;5054515;28;20398;-60
2021/12/16 05:06:08;;;;;;;18.70;10.90;;;;;;;;;;5054390;28;20879;-60
2021/12/16 05:08:34;;;;;;;18.97;12.00;;;;;;;;;;5053943;28;20915;-60
2021/12/16 05:11:03;;;;;;;17.77;10.27;;;;;;;;;;5054536;28;20485;-59
2021/12/16 05:13:30;;;;;;;16.07;8.73;;;;;;;;;;5054779;28;20762;-60
2021/12/16 05:16:00;;;;;;;15.90;9.60;;;;;;;;;;5053983;28;20774;-59
2021/12/16 05:18:31;;;;;;;17.30;10.60;;;;;;;;;;5053943;28;20785;-60
2021/12/16 05:20:58;;;;;;;16.00;10.83;;;;;;;;;;5053587;28;20442;-58
2021/12/16 05:28:35;;;;;;;16.93;11.00;;;;;;;;;;5053620;28;20950;-59
2021/12/16 05:31:01;;;;;;;18.40;9.77;;;;;;;;;;5053516;28;20398;-60
2021/12/16 05:33:28;;;;;;;20.50;10.97;;;;;;;;;;5053640;28;20406;-59
2021/12/16 05:35:54;;;;;;;23.30;10.90;;;;;;;;;;5053603;28;20752;-60
2021/12/16 05:38:20;;;;;;;18.70;11.47;;;;;;;;;;5053672;28;20434;-59
2021/12/16 05:40:46;;;;;;;17.27;10.73;;;;;;;;;;5053518;28;20442;-59
2021/12/16 05:43:13;;;;;;;22.87;11.27;;;;;;;;;;5053685;28;20402;-61
2021/12/16 05:45:40;;;;;;;20.37;11.40;;;;;;;;;;5053790;28;20394;-60
2021/12/16 05:48:08;;;;;;;19.10;11.90;;;;;;;;;;5053445;28;20454;-60
2021/12/16 05:50:36;;;;;;;19.20;11.00;;;;;;;;;;5053244;28;20452;-60
2021/12/16 05:53:02;;;;;;;15.60;11.10;;;;;;;;;;5053317;28;20405;-60
2021/12/16 05:55:29;;;;;;;17.10;10.10;;;;;;;;;;5053680;28;20433;-59
2021/12/16 05:57:56;;;;;;;12.43;7.87;;;;;;;;;;5053144;28;20425;-55
2021/12/16 06:00:25;;;;;;;15.50;8.93;;;;;;;;;;5053561;28;20450;-60
2021/12/16 06:02:53;;;;;;;17.13;9.70;;;;;;;;;;5046884;28;20423;-60
2021/12/16 06:05:19;;;;;;;16.87;9.03;;;;;;;;;;5034099;28;20437;-60
2021/12/16 06:07:46;;;;;;;16.20;9.90;;;;;;;;;;5037204;28;20403;-63
2021/12/16 06:10:41;;;;;;;14.90;8.13;;;;;;;;;;5049824;28;20424;-65
2021/12/16 06:12:59;;;;;;;15.13;8.20;;;;;;;;;;5045734;28;20409;-66
2021/12/16 06:29:01;;;;;;;13.00;8.70;;;;;;;;;;5073170;28;20490;-62
2021/12/16 06:31:27;;;;;;;12.77;7.90;;;;;;;;;;5073588;28;20913;-64
2021/12/16 06:33:54;;;;;;;13.33;6.70;;;;;;;;;;5073484;28;20405;-62
2021/12/16 06:36:20;;;;;;;18.70;9.90;;;;;;;;;;5045615;28;20425;-59
2021/12/16 06:38:46;;;;;;;14.20;8.07;;;;;;;;;;5040959;28;20423;-58
2021/12/16 06:41:12;;;;;;;15.57;8.83;;;;;;;;;;5053504;28;20402;-61
2021/12/16 06:43:38;;;;;;;18.23;9.47;;;;;;;;;;5054398;28;20398;-60
2021/12/16 06:46:09;;;;;;;18.07;10.50;;;;;;;;;;5055658;28;20390;-60
2021/12/16 06:48:38;;;;;;;16.53;9.50;;;;;;;;;;5045043;28;20430;-60
2021/12/16 06:51:10;;;;;;;19.07;10.87;;;;;;;;;;5056719;28;20406;-60
2021/12/16 06:53:51;;;;;;;15.43;9.73;;;;;;;;;;5053487;28;20490;-61
2021/12/16 06:56:25;;;;;;;17.53;10.90;;;;;;;;;;5038266;28;20445;-61
2021/12/16 06:59:05;;;;;;;14.30;8.70;;;;;;;;;;5044723;28;20441;-60
2021/12/16 07:03:58;;;;;;;15.60;8.85;;;;;;;;;;5042607;28;20809;-65
2021/12/16 07:06:26;;;;;;;12.50;7.13;;;;;;;;;;5055053;28;20250;-65
2021/12/16 07:08:54;;;;;;;13.88;8.68;;;;;;;;;;5048312;28;20407;-62
2021/12/16 07:11:21;;;;;;;13.38;8.80;;;;;;;;;;5047683;28;20411;-66
2021/12/16 07:13:56;;;;;;;9.85;6.40;;;;;;;;;;5053718;28;20776;-63
2021/12/16 07:16:23;;;;;;;11.13;7.43;;;;;;;;;;5036959;28;20683;-64
2021/12/16 07:18:49;;;;;;;10.47;6.60;;;;;;;;;;5039006;28;20434;-63
2021/12/16 07:21:16;;;;;;;10.67;7.17;;;;;;;;;;5054499;28;20420;-63
2021/12/16 07:23:42;;;;;;;12.30;7.43;;;;;;;;;;5040488;28;20453;-63
2021/12/16 07:26:08;;;;;;;12.87;7.53;;;;;;;;;;5036636;28;20907;-61
2021/12/16 07:28:34;;;;;;;11.50;7.17;;;;;;;;;;5051849;28;20487;-59
2021/12/16 07:31:01;;;;;;;11.32;7.68;;;;;;;;;;5045704;28;20420;-63
2021/12/16 07:33:27;;;;;;;14.87;7.70;;;;;;;;;;5053821;28;20179;-63
2021/12/16 07:35:54;;;;;;;11.20;7.20;;;;;;;;;;5043336;28;20475;-62
2021/12/16 07:38:23;;;;;;;15.97;9.53;;;;;;;;;;5052471;28;20437;-63
2021/12/16 07:40:50;;;;;;;14.00;9.07;;;;;;;;;;5035694;28;20782;-59
2021/12/16 07:46:01;;;;;;;14.27;8.20;;;;;;;;;;5046398;28;20933;-65
2021/12/16 07:48:28;;;;;;;13.60;8.17;;;;;;;;;;5055943;28;20414;-67
2021/12/16 07:50:56;;;;;;;12.82;8.20;;;;;;;;;;5040699;28;20406;-63
2021/12/16 07:53:22;;;;;;;12.40;7.97;;;;;;;;;;5039363;28;20410;-61
2021/12/16 07:55:48;;;;;;;11.77;7.50;;;;;;;;;;5038807;28;20631;-63
2021/12/16 07:58:15;;;;;;;12.90;8.20;;;;;;;;;;5041593;28;20462;-63
2021/12/16 08:00:41;;;;;;;10.40;8.40;;;;;;;;;;5043680;28;20499;-60
2021/12/16 08:03:09;;;;;;;17.30;8.00;;;;;;;;;;5042922;28;20468;-60
2021/12/16 08:05:38;;;;;;;13.70;8.00;;;;;;;;;;5035800;28;20419;-60
2021/12/16 08:08:05;;;;;;;11.97;8.27;;;;;;;;;;5044019;28;20432;-59
2021/12/16 08:10:33;;;;;;;13.63;8.30;;;;;;;;;;5046881;28;20468;-57
2021/12/16 08:12:59;;;;;;;12.80;7.57;;;;;;;;;;5041584;28;20467;-60
2021/12/16 08:15:25;;;;;;;12.37;8.03;;;;;;;;;;5044098;28;20431;-64
2021/12/16 08:17:53;;;;;;;11.75;7.80;;;;;;;;;;5047570;28;20421;-64
2021/12/16 08:20:19;;;;;;;12.53;8.73;;;;;;;;;;5035565;28;20192;-66
2021/12/16 08:22:47;;;;;;;13.20;8.30;;;;;;;;;;5040871;28;20408;-62
2021/12/16 08:25:14;;;;;;;14.03;8.47;;;;;;;;;;5035456;28;20457;-64
2021/12/16 08:27:40;;;;;;;15.43;8.90;;;;;;;;;;5039178;28;20935;-65
2021/12/16 08:30:07;;;;;;;16.43;10.07;;;;;;;;;;5047848;28;20426;-64
2021/12/16 08:32:33;;;;;;;13.97;9.67;;;;;;;;;;5046998;28;20413;-64
2021/12/16 08:34:59;;;;;;;13.97;8.93;;;;;;;;;;5043879;28;20431;-64
2021/12/16 08:37:26;;;;;;;17.00;9.10;;;;;;;;;;5035824;28;20444;-65
2021/12/16 08:39:53;;;;;;;13.20;8.00;;;;;;;;;;5043345;28;20465;-63
2021/12/16 08:42:19;;;;;;;11.27;7.43;;;;;;;;;;5039981;28;20430;-65
2021/12/16 08:44:45;;;;;;;13.23;8.03;;;;;;;;;;5051239;28;20481;-63
2021/12/16 08:47:12;;;;;;;12.10;8.40;;;;;;;;;;5062094;28;20463;-63
2021/12/16 08:49:39;;;;;;;13.20;7.87;;;;;;;;;;5051981;28;20801;-63
2021/12/16 08:52:09;;;;;;;11.50;8.00;;;;;;;;;;5054087;28;20402;-64
2021/12/16 08:54:35;;;;;;;11.95;7.95;;;;;;;;;;5051170;28;20755;-58
2021/12/16 08:57:01;;;;;;;12.73;9.53;;;;;;;;;;5052191;28;20236;-66
2021/12/16 08:59:28;;;;;;;10.57;7.67;;;;;;;;;;5051707;28;20458;-65
2021/12/16 09:01:55;;;;;;;13.18;8.80;;;;;;;;;;5052456;28;20462;-64
2021/12/16 09:04:23;;;;;;;13.03;8.13;;;;;;;;;;5042261;28;20195;-61
2021/12/16 09:06:50;;;;;;;11.57;8.00;;;;;;;;;;5051802;28;20413;-64
2021/12/16 09:09:16;;;;;;;11.13;7.53;;;;;;;;;;5052382;28;20440;-65
2021/12/16 09:12:03;;;;;;;13.40;8.80;;;;;;;;;;5055361;28;20398;-65
2021/12/16 09:14:29;;;;;;;12.97;8.27;;;;;;;;;;5037105;28;20455;-67
2021/12/16 09:16:56;;;;;;;31.67;22.83;;;;;;;;;;5034351;28;20429;-65
2021/12/16 09:19:22;;;;;;;14.07;8.10;;;;;;;;;;5034144;28;21037;-63
2021/12/16 09:21:48;;;;;;;11.23;7.30;;;;;;;;;;5036768;28;20406;-62
2021/12/16 09:24:14;;;;;;;12.97;7.67;;;;;;;;;;5054267;28;20425;-63
2021/12/16 09:26:44;;;;;;;9.87;6.33;;;;;;;;;;5039285;28;20949;-64
2021/12/16 09:29:11;;;;;;;11.10;6.73;;;;;;;;;;5041956;28;20434;-65
2021/12/16 09:31:37;;;;;;;8.20;5.90;;;;;;;;;;5040179;28;20915;-65
2021/12/16 09:34:07;;;;;;;7.77;5.70;;;;;;;;;;5040258;28;20455;-63
2021/12/16 09:36:34;;;;;;;7.83;5.40;;;;;;;;;;5043109;28;20401;-64
2021/12/16 09:39:00;;;;;;;5.83;5.00;;;;;;;;;;5061681;28;20434;-64
2021/12/16 09:41:28;;;;;;;6.80;5.57;;;;;;;;;;5040050;28;20505;-61
2021/12/16 09:43:55;;;;;;;7.20;5.53;;;;;;;;;;5052404;28;20405;-60
2021/12/16 09:46:23;;;;;;;7.33;5.37;;;;;;;;;;5037355;28;20419;-61
2021/12/16 09:48:50;;;;;;;7.93;5.30;;;;;;;;;;5045066;28;20430;-64
2021/12/16 09:51:21;;;;;;;6.97;5.33;;;;;;;;;;5050085;28;20961;-63
2021/12/16 09:53:47;;;;;;;5.90;4.50;;;;;;;;;;5051505;28;20512;-64
2021/12/16 09:56:13;;;;;;;6.80;4.77;;;;;;;;;;5047179;28;20422;-65
2021/12/16 09:58:43;;;;;;;5.83;5.00;;;;;;;;;;5041598;28;20521;-65
2021/12/16 10:01:11;;;;;;;6.30;5.03;;;;;;;;;;5048903;28;20442;-61
2021/12/16 10:03:39;;;;;;;8.50;5.77;;;;;;;;;;5041435;28;20870;-62
2021/12/16 10:06:05;;;;;;;7.97;6.23;;;;;;;;;;5035562;28;20418;-66
2021/12/16 10:08:31;;;;;;;7.43;5.90;;;;;;;;;;5032761;28;20433;-65
2021/12/16 10:10:58;;;;;;;6.60;4.63;;;;;;;;;;5033014;28;22147;-64
2021/12/16 10:13:37;;;;;;;5.70;4.80;;;;;;;;;;5032851;28;20904;-64
2021/12/16 10:18:30;;;;;;;7.00;4.97;;;;;;;;;;5050360;28;20415;-64
2021/12/16 10:20:58;;;;;;;7.40;5.43;;;;;;;;;;5048449;28;20497;-57
2021/12/16 10:23:24;;;;;;;8.07;4.87;;;;;;;;;;5037683;28;20764;-65
2021/12/16 10:26:00;;;;;;;6.73;5.00;;;;;;;;;;5053654;28;20509;-64
2021/12/16 10:28:34;;;;;;;8.03;5.70;;;;;;;;;;5039667;28;20453;-64
2021/12/16 10:31:02;;;;;;;6.90;5.13;;;;;;;;;;5037058;28;20429;-65
2021/12/16 10:33:28;;;;;;;11.63;5.37;;;;;;;;;;5048569;28;20529;-62
2021/12/16 10:36:04;;;;;;;6.90;5.00;;;;;;;;;;5036244;28;20875;-60
2021/12/16 10:38:34;;;;;;;7.33;4.67;;;;;;;;;;5041833;28;20527;-67
2021/12/16 10:41:00;;;;;;;5.80;4.40;;;;;;;;;;5040800;28;20468;-63
2021/12/16 10:43:26;;;;;;;8.13;5.30;;;;;;;;;;5040138;28;20429;-64
2021/12/16 10:46:16;;;;;;;5.73;4.10;;;;;;;;;;5043449;28;20829;-59
2021/12/16 10:48:46;;;;;;;6.27;4.97;;;;;;;;;;5041056;28;20553;-61
2021/12/16 10:51:20;;;;;;;6.37;4.70;;;;;;;;;;5038657;28;20422;-61
2021/12/16 10:53:52;;;;;;;6.43;4.77;;;;;;;;;;5039735;28;20421;-62
2021/12/16 10:56:19;;;;;;;9.57;6.43;;;;;;;;;;5038722;28;20431;-61
2021/12/16 10:58:51;;;;;;;8.37;5.60;;;;;;;;;;5036031;28;20437;-60
2021/12/16 11:01:32;;;;;;;7.40;5.60;;;;;;;;;;5032270;28;20512;-63
2021/12/16 11:03:59;;;;;;;6.90;5.80;;;;;;;;;;5032293;28;20415;-60
2021/12/16 11:06:30;;;;;;;7.10;4.87;;;;;;;;;;5032205;28;20399;-61
2021/12/16 11:09:16;;;;;;;9.17;6.30;;;;;;;;;;5043047;28;20877;-61
2021/12/16 11:11:42;;;;;;;6.60;5.37;;;;;;;;;;5032519;28;20407;-60
2021/12/16 11:14:08;;;;;;;7.77;5.23;;;;;;;;;;5047976;28;20410;-60
2021/12/16 11:16:35;;;;;;;7.47;5.20;;;;;;;;;;5038120;28;20584;-60
2021/12/16 11:19:01;;;;;;;8.03;6.07;;;;;;;;;;5038251;28;20431;-61
2021/12/16 11:21:40;;;;;;;5.53;4.93;;;;;;;;;;5039272;28;20786;-62
2021/12/16 11:24:24;;;;;;;5.33;4.07;;;;;;;;;;5048881;28;20421;-61
2021/12/16 11:26:51;;;;;;;5.87;4.60;;;;;;;;;;5051998;28;20410;-61
2021/12/16 11:29:17;;;;;;;6.07;3.73;;;;;;;;;;5046660;28;20438;-60
2021/12/16 11:31:46;;;;;;;5.77;4.60;;;;;;;;;;5060792;28;20432;-62
2021/12/16 11:34:12;;;;;;;5.73;3.70;;;;;;;;;;5076606;28;20492;-62
2021/12/16 11:36:40;;;;;;;4.47;3.63;;;;;;;;;;5060000;28;20471;-62
2021/12/16 11:39:09;;;;;;;5.60;3.40;;;;;;;;;;5049376;28;20817;-61
2021/12/16 11:41:46;;;;;;;5.23;4.13;;;;;;;;;;5046639;28;20440;-61
2021/12/16 11:44:18;;;;;;;5.97;4.30;;;;;;;;;;5047825;28;20935;-61
2021/12/16 11:46:44;;;;;;;4.63;3.50;;;;;;;;;;5054082;28;20937;-61
2021/12/16 11:49:31;;;;;;;4.30;3.50;;;;;;;;;;5054335;28;20445;-61
2021/12/16 11:52:07;;;;;;;5.27;4.23;;;;;;;;;;5041999;28;20411;-61
2021/12/16 11:54:36;;;;;;;4.50;4.07;;;;;;;;;;5044073;28;20418;-60
2021/12/16 11:57:05;;;;;;;5.53;4.07;;;;;;;;;;5042956;28;20436;-60
2021/12/16 11:59:35;;;;;;;6.37;4.10;;;;;;;;;;5045260;28;20473;-60
2021/12/16 12:02:01;;;;;;;6.03;4.20;;;;;;;;;;5042018;28;20424;-61
2021/12/16 12:04:31;;;;;;;4.10;3.27;;;;;;;;;;5049492;28;20415;-62
2021/12/16 12:06:57;;;;;;;4.40;3.50;;;;;;;;;;5041837;28;20848;-59
2021/12/16 12:09:33;;;;;;;4.50;3.47;;;;;;;;;;5048584;28;20461;-61
2021/12/16 12:11:59;;;;;;;5.03;3.90;;;;;;;;;;5042816;28;20739;-61
2021/12/16 12:14:30;;;;;;;5.90;4.33;;;;;;;;;;5037515;28;20426;-61
2021/12/16 12:17:02;;;;;;;5.47;4.07;;;;;;;;;;5044265;28;20407;-62
2021/12/16 12:19:28;;;;;;;5.10;4.00;;;;;;;;;;5040486;28;20492;-61
2021/12/16 12:21:56;;;;;;;7.00;4.97;;;;;;;;;;5038869;28;20449;-62
2021/12/16 12:24:27;;;;;;;5.97;4.47;;;;;;;;;;5041475;28;20406;-59
2021/12/16 12:26:55;;;;;;;7.77;4.47;;;;;;;;;;5049656;28;20875;-59
2021/12/16 12:29:32;;;;;;;10.50;5.90;;;;;;;;;;5051102;28;20514;-60
2021/12/16 12:32:01;;;;;;;6.40;4.10;;;;;;;;;;5044485;28;20422;-62
2021/12/16 12:34:29;;;;;;;6.03;4.63;;;;;;;;;;5044159;28;20420;-58
2021/12/16 12:36:57;;;;;;;7.37;4.80;;;;;;;;;;5043196;28;20472;-59
2021/12/16 12:39:26;;;;;;;6.57;4.90;;;;;;;;;;5042152;28;20460;-61
2021/12/16 12:41:53;;;;;;;5.70;4.20;;;;;;;;;;5037754;28;20415;-61
2021/12/16 12:44:20;;;;;;;7.53;5.63;;;;;;;;;;5040394;28;20415;-62
2021/12/16 12:46:46;;;;;;;6.57;5.10;;;;;;;;;;5058692;28;20410;-60
2021/12/16 12:49:15;;;;;;;6.50;5.43;;;;;;;;;;5043406;28;20451;-58
2021/12/16 12:51:44;;;;;;;5.93;4.70;;;;;;;;;;5040745;28;20410;-60
2021/12/16 12:54:19;;;;;;;7.40;4.80;;;;;;;;;;5050029;28;20446;-60
2021/12/16 12:56:45;;;;;;;7.23;4.07;;;;;;;;;;5047617;28;20438;-62
2021/12/16 12:59:15;;;;;;;8.00;5.50;;;;;;;;;;5040425;28;20423;-61
2021/12/16 13:01:47;;;;;;;8.00;5.27;;;;;;;;;;5048164;28;20490;-62
2021/12/16 13:04:13;;;;;;;6.77;4.70;;;;;;;;;;5045843;28;20442;-62
2021/12/16 13:06:54;;;;;;;6.17;4.30;;;;;;;;;;5045119;28;20409;-61
2021/12/16 13:09:29;;;;;;;9.67;5.40;;;;;;;;;;5043460;28;20466;-61
2021/12/16 13:11:55;;;;;;;5.93;4.63;;;;;;;;;;5045033;28;20419;-61
2021/12/16 13:14:36;;;;;;;6.70;4.60;;;;;;;;;;5043354;28;20418;-62
2021/12/16 13:25:44;;;;;;;11.50;4.53;;;;;;;;;;5036711;28;20437;-62
2021/12/16 13:28:06;;;;;;;5.30;3.90;;;;;;;;;;5054685;28;20433;-60
2021/12/16 13:30:38;;;;;;;5.97;4.13;;;;;;;;;;5047016;28;20879;-62
2021/12/16 13:35:50;;;;;;;6.17;3.40;;;;;;;;;;5045418;28;20804;-60
2021/12/16 13:38:18;;;;;;;4.83;3.37;;;;;;;;;;5040886;28;20465;-62
2021/12/16 13:40:46;;;;;;;6.03;3.90;;;;;;;;;;5039051;28;20457;-62
2021/12/16 13:43:22;;;;;;;4.57;3.07;;;;;;;;;;5037011;28;20510;-59
2021/12/16 13:46:04;;;;;;;6.67;3.90;;;;;;;;;;5050760;28;20408;-59
2021/12/16 14:05:40;;;;;;;6.23;4.60;;;;;;;;;;5048921;28;20437;-62
2021/12/16 14:08:08;;;;;;;5.40;4.33;;;;;;;;;;5034212;28;20434;-60
2021/12/16 14:10:46;;;;;;;9.43;3.80;;;;;;;;;;5034976;28;20407;-62
2021/12/16 14:14:09;;;;;;;4.73;3.83;;;;;;;;;;5051563;28;20413;-62
2021/12/16 14:26:19;;;;;;;7.27;3.50;;;;;;;;;;5060477;28;20414;-58
2021/12/16 14:46:47;;;;;;;9.63;4.70;;;;;;;;;;5045172;28;20403;-62
2021/12/16 14:49:13;;;;;;;6.10;3.67;;;;;;;;;;5037361;28;20422;-62
2021/12/16 14:51:40;;;;;;;4.20;3.40;;;;;;;;;;5040191;28;20422;-60
2021/12/16 14:54:07;;;;;;;6.73;4.77;;;;;;;;;;5053226;28;20520;-60
2021/12/16 14:56:38;;;;;;;7.00;4.90;;;;;;;;;;5039085;28;20434;-60
2021/12/16 14:59:09;;;;;;;6.60;4.97;;;;;;;;;;5033405;28;20449;-61
2021/12/16 15:01:37;;;;;;;7.60;5.40;;;;;;;;;;5033235;28;20415;-62
2021/12/16 15:04:03;;;;;;;7.60;6.10;;;;;;;;;;5033780;28;20395;-62
2021/12/16 15:06:37;;;;;;;8.47;6.67;;;;;;;;;;5044873;28;20452;-62
2021/12/16 15:14:24;;;;;;;9.00;6.63;;;;;;;;;;5035613;28;20417;-61
2021/12/16 15:17:09;;;;;;;9.10;7.17;;;;;;;;;;5039610;28;20470;-61
2021/12/16 15:44:55;;;;;;;8.70;6.30;;;;;;;;;;5040334;28;20421;-62
2021/12/16 15:47:22;;;;;;;10.73;7.13;;;;;;;;;;5049965;28;20801;-62
2021/12/16 15:49:48;;;;;;;9.70;7.33;;;;;;;;;;5042832;28;20426;-61
2021/12/16 15:52:14;;;;;;;9.93;7.10;;;;;;;;;;5054570;28;20410;-61
2021/12/16 15:54:47;;;;;;;8.60;6.73;;;;;;;;;;5043185;28;20434;-62
2021/12/16 15:57:13;;;;;;;10.33;6.43;;;;;;;;;;5049604;28;20524;-61
2021/12/16 15:59:40;;;;;;;10.13;6.63;;;;;;;;;;5040723;28;20457;-61
2021/12/16 16:02:06;;;;;;;10.20;7.30;;;;;;;;;;5049180;28;20433;-61
2021/12/16 16:04:37;;;;;;;9.27;6.80;;;;;;;;;;5040824;28;20414;-59
2021/12/16 16:07:04;;;;;;;11.50;7.73;;;;;;;;;;5043322;28;20441;-61
2021/12/16 16:09:44;;;;;;;11.13;7.40;;;;;;;;;;5040873;28;20435;-61
2021/12/16 16:12:15;;;;;;;12.20;8.30;;;;;;;;;;5039909;28;20907;-61
2021/12/16 16:14:44;;;;;;;10.63;7.87;;;;;;;;;;5044794;28;20834;-64
2021/12/16 16:17:15;;;;;;;11.47;8.07;;;;;;;;;;5042470;28;21038;-60
2021/12/16 16:19:42;;;;;;;11.20;7.83;;;;;;;;;;5038478;28;20450;-62
2021/12/16 16:22:08;;;;;;;9.83;7.07;;;;;;;;;;5043605;28;20413;-60
2021/12/16 16:24:42;;;;;;;12.23;9.23;;;;;;;;;;5049899;28;20421;-62
2021/12/16 16:27:10;;;;;;;12.67;7.40;;;;;;;;;;5046556;28;20437;-64
2021/12/16 16:29:37;;;;;;;12.10;7.50;;;;;;;;;;5040769;28;20442;-60
2021/12/16 16:32:04;;;;;;;14.00;8.40;;;;;;;;;;5044315;28;20425;-62
2021/12/16 16:34:32;;;;;;;13.67;8.50;;;;;;;;;;5042174;28;20446;-64
2021/12/16 16:37:01;;;;;;;15.37;10.70;;;;;;;;;;5046273;28;20780;-61
2021/12/16 16:39:28;;;;;;;13.20;8.67;;;;;;;;;;5046469;28;20461;-61
2021/12/16 16:41:57;;;;;;;12.40;9.30;;;;;;;;;;5047337;28;20899;-62
2021/12/16 16:44:25;;;;;;;14.93;10.63;;;;;;;;;;5042796;28;20418;-61
2021/12/16 16:46:57;;;;;;;18.60;11.67;;;;;;;;;;5041439;28;20476;-61
2021/12/16 16:49:29;;;;;;;16.37;11.30;;;;;;;;;;5050128;28;20434;-62
2021/12/16 16:51:56;;;;;;;14.30;10.80;;;;;;;;;;5042313;28;20454;-59
2021/12/16 16:54:30;;;;;;;15.60;10.27;;;;;;;;;;5043583;28;20788;-60
2021/12/16 16:57:00;;;;;;;20.07;12.47;;;;;;;;;;5047394;28;20487;-59
2021/12/16 16:59:44;;;;;;;16.13;10.77;;;;;;;;;;5042127;28;20488;-61
2021/12/16 17:02:15;;;;;;;16.93;12.00;;;;;;;;;;5042140;28;20464;-60
2021/12/16 17:04:42;;;;;;;16.67;11.23;;;;;;;;;;5054796;28;20474;-60
2021/12/16 17:07:08;;;;;;;18.07;12.30;;;;;;;;;;5052571;28;20416;-61
2021/12/16 17:09:36;;;;;;;17.83;11.70;;;;;;;;;;5036909;28;20464;-64
2021/12/16 17:12:05;;;;;;;19.30;11.80;;;;;;;;;;5041602;28;20449;-62
2021/12/16 17:14:39;;;;;;;20.33;11.90;;;;;;;;;;5046967;28;20417;-60
2021/12/16 17:17:28;;;;;;;20.27;12.57;;;;;;;;;;5036646;28;20417;-58
2021/12/16 17:20:07;;;;;;;19.07;13.37;;;;;;;;;;5049555;28;20545;-63
2021/12/16 17:22:40;;;;;;;22.47;14.90;;;;;;;;;;5049397;28;20444;-60
2021/12/16 17:25:07;;;;;;;18.40;13.17;;;;;;;;;;5044907;28;20471;-61
2021/12/16 17:27:38;;;;;;;19.90;14.00;;;;;;;;;;5039599;28;20782;-61
2021/12/16 17:30:12;;;;;;;18.27;12.37;;;;;;;;;;5035242;28;20943;-61
2021/12/16 17:32:40;;;;;;;20.40;14.23;;;;;;;;;;5036614;28;20415;-61
2021/12/16 17:35:15;;;;;;;18.40;13.37;;;;;;;;;;5051145;28;20828;-60
2021/12/16 17:37:43;;;;;;;22.10;14.83;;;;;;;;;;5047922;28;20490;-61
2021/12/16 17:40:20;;;;;;;22.03;14.33;;;;;;;;;;5041296;28;20486;-60
2021/12/16 17:42:46;;;;;;;20.13;14.00;;;;;;;;;;5045727;28;20826;-60
2021/12/16 17:45:15;;;;;;;20.50;14.10;;;;;;;;;;5040408;28;20419;-61
2021/12/16 17:47:41;;;;;;;20.80;14.10;;;;;;;;;;5033829;28;20908;-63
2021/12/16 17:50:11;;;;;;;21.70;15.20;;;;;;;;;;5044050;28;20441;-60
2021/12/16 17:52:38;;;;;;;21.20;14.13;;;;;;;;;;5050797;28;20905;-61
2021/12/16 17:55:13;;;;;;;21.57;13.70;;;;;;;;;;5044182;28;20415;-61
2021/12/16 17:57:40;;;;;;;22.23;13.90;;;;;;;;;;5047680;28;20445;-63
2021/12/16 18:00:09;;;;;;;21.10;14.80;;;;;;;;;;5040558;28;20480;-63
2021/12/16 18:02:35;;;;;;;22.50;14.13;;;;;;;;;;5036098;28;20426;-61
2021/12/16 18:05:03;;;;;;;16.83;12.43;;;;;;;;;;5036142;28;20528;-65
2021/12/16 18:07:29;;;;;;;17.30;13.00;;;;;;;;;;5045270;28;20414;-60
2021/12/16 18:09:58;;;;;;;19.20;13.20;;;;;;;;;;5041325;28;20441;-61
2021/12/16 18:12:24;;;;;;;18.83;13.10;;;;;;;;;;5044677;28;20415;-62
2021/12/16 18:15:11;;;;;;;19.90;12.73;;;;;;;;;;5040360;28;20421;-61
2021/12/16 18:17:40;;;;;;;18.50;14.03;;;;;;;;;;5042220;28;20425;-62
2021/12/16 18:20:06;;;;;;;20.10;13.70;;;;;;;;;;5041073;28;20465;-62
2021/12/16 18:22:35;;;;;;;21.30;12.83;;;;;;;;;;5046690;28;20410;-62
2021/12/16 18:25:10;;;;;;;20.03;14.20;;;;;;;;;;5035328;28;20417;-62
2021/12/16 18:27:40;;;;;;;20.17;13.77;;;;;;;;;;5041504;28;20418;-62
2021/12/16 18:30:29;;;;;;;19.87;12.57;;;;;;;;;;5045577;28;20472;-61